createdAt,value
2022-11-02T00:00:30.315Z,95.47
2022-11-02T00:01:43.737Z,95.58
2022-11-02T00:02:47.741Z,95.33
2022-11-02T00:03:51.717Z,95.30
2022-11-02T00:04:55.543Z,95.12
2022-11-02T00:05:59.422Z,95.34
2022-11-02T00:07:03.211Z,95.23
2022-11-02T00:08:07.234Z,95.76
2022-11-02T00:09:11.091Z,95.71
2022-11-02T00:10:15.843Z,95.61
2022-11-02T00:11:20.003Z,95.63
2022-11-02T00:12:24.230Z,95.20
2022-11-02T00:13:28.314Z,95.29
2022-11-02T00:14:32.065Z,95.26
2022-11-02T00:15:37.825Z,95.46
2022-11-02T00:16:42.159Z,95.78
2022-11-02T00:17:50.669Z,95.66
2022-11-02T00:19:00.662Z,95.55
2022-11-02T00:20:06.008Z,95.37
2022-11-02T00:21:11.969Z,95.37
2022-11-02T00:22:16.468Z,95.18
2022-11-02T00:23:20.703Z,95.15
2022-11-02T00:24:25.104Z,95.17
2022-11-02T00:25:30.164Z,95.19
2022-11-02T00:26:37.114Z,95.12
2022-11-02T00:27:43.062Z,95.22
2022-11-02T00:28:47.213Z,95.08
2022-11-02T00:29:52.101Z,95.03
2022-11-02T00:30:55.980Z,95.17
2022-11-02T00:32:00.776Z,95.15
2022-11-02T00:33:04.982Z,95.09
2022-11-02T00:34:08.986Z,94.90
2022-11-02T00:35:13.478Z,95.15
2022-11-02T00:36:17.686Z,95.10
2022-11-02T00:37:21.905Z,95.01
2022-11-02T00:38:25.823Z,95.05
2022-11-02T00:39:29.906Z,95.13
2022-11-02T00:40:34.120Z,94.97
2022-11-02T00:41:38.494Z,95.39
2022-11-02T00:42:42.538Z,95.71
2022-11-02T00:43:46.627Z,95.38
2022-11-02T00:44:50.719Z,95.38
2022-11-02T00:45:54.748Z,95.26
2022-11-02T00:46:58.630Z,95.16
2022-11-02T00:48:03.335Z,95.06
2022-11-02T00:49:08.021Z,95.28
2022-11-02T00:50:11.945Z,95.37
2022-11-02T00:51:16.167Z,95.27
2022-11-02T00:52:20.007Z,95.25
2022-11-02T00:53:23.947Z,95.27
2022-11-02T00:54:28.653Z,95.14
2022-11-02T00:55:33.281Z,94.95
2022-11-02T00:56:39.493Z,95.16
2022-11-02T00:57:43.288Z,94.88
2022-11-02T00:58:47.332Z,94.60
2022-11-02T00:59:51.241Z,94.79
2022-11-02T01:00:56.777Z,94.78
2022-11-02T01:02:00.770Z,94.78
2022-11-02T01:03:04.771Z,95.29
2022-11-02T01:04:08.772Z,95.31
2022-11-02T01:05:13.110Z,95.50
2022-11-02T01:06:17.133Z,94.92
2022-11-02T01:07:20.897Z,95.40
2022-11-02T01:08:24.899Z,95.42
2022-11-02T01:09:29.233Z,95.23
2022-11-02T01:10:34.551Z,95.32
2022-11-02T01:11:40.772Z,95.05
2022-11-02T01:12:44.828Z,95.30
2022-11-02T01:13:50.939Z,95.66
2022-11-02T01:14:55.244Z,95.71
2022-11-02T01:15:59.394Z,95.32
2022-11-02T01:17:05.019Z,95.34
2022-11-02T01:18:10.101Z,95.33
2022-11-02T01:19:14.691Z,95.32
2022-11-02T01:20:18.932Z,95.45
2022-11-02T01:21:24.312Z,95.25
2022-11-02T01:22:28.283Z,95.58
2022-11-02T01:23:35.575Z,95.80
2022-11-02T01:24:40.399Z,95.57
2022-11-02T01:25:47.858Z,95.37
2022-11-02T01:26:53.233Z,95.19
2022-11-02T01:27:57.467Z,95.21
2022-11-02T01:29:01.167Z,95.05
2022-11-02T01:30:06.913Z,95.57
2022-11-02T01:31:11.927Z,95.29
2022-11-02T01:32:16.063Z,95.42
2022-11-02T01:33:20.508Z,95.27
2022-11-02T01:34:28.986Z,95.54
2022-11-02T01:35:33.808Z,95.96
2022-11-02T01:36:38.524Z,95.85
2022-11-02T01:37:42.956Z,95.58
2022-11-02T01:38:49.488Z,96.20
2022-11-02T01:39:56.576Z,95.97
2022-11-02T01:41:01.370Z,95.76
2022-11-02T01:42:40.397Z,95.47
2022-11-02T01:43:49.398Z,95.51
2022-11-02T01:44:53.970Z,95.16
2022-11-02T01:46:08.594Z,95.50
2022-11-02T01:47:31.835Z,95.65
2022-11-02T01:49:04.521Z,95.63
2022-11-02T01:50:26.332Z,95.82
2022-11-02T01:51:42.904Z,96.20
2022-11-02T01:52:47.130Z,96.24
2022-11-02T01:53:56.909Z,96.06
2022-11-02T01:55:19.570Z,95.83
2022-11-02T01:56:30.180Z,95.67
2022-11-02T01:57:37.266Z,95.89
2022-11-02T01:58:47.068Z,95.40
2022-11-02T02:00:02.932Z,95.59
2022-11-02T02:01:07.261Z,95.72
2022-11-02T02:02:21.000Z,95.67
2022-11-02T02:03:26.208Z,95.92
2022-11-02T02:04:30.355Z,95.74
2022-11-02T02:05:41.475Z,95.83
2022-11-02T02:06:45.991Z,95.49
2022-11-02T02:07:51.926Z,95.53
2022-11-02T02:09:02.967Z,95.57
2022-11-02T02:10:08.657Z,95.64
2022-11-02T02:11:38.870Z,95.51
2022-11-02T02:12:44.538Z,95.67
2022-11-02T02:13:49.241Z,95.65
2022-11-02T02:14:55.050Z,95.59
2022-11-02T02:16:58.359Z,95.61
2022-11-02T02:18:51.316Z,95.95
2022-11-02T02:20:35.678Z,95.93
2022-11-02T02:22:27.781Z,95.93
2022-11-02T02:23:53.192Z,96.07
2022-11-02T02:25:40.834Z,95.95
2022-11-02T02:26:56.398Z,95.80
2022-11-02T02:28:21.391Z,96.11
2022-11-02T02:29:42.223Z,96.14
2022-11-02T02:31:36.490Z,96.09
2022-11-02T02:33:11.938Z,95.73
2022-11-02T02:34:33.049Z,95.75
2022-11-02T02:35:42.881Z,95.96
2022-11-02T02:37:03.109Z,95.78
2022-11-02T02:38:36.912Z,96.12
2022-11-02T02:40:03.336Z,96.06
2022-11-02T02:41:25.977Z,96.54
2022-11-02T02:43:05.355Z,96.61
2022-11-02T02:44:16.891Z,96.32
2022-11-02T02:45:44.875Z,96.54
2022-11-02T02:47:01.318Z,96.21
2022-11-02T02:48:17.955Z,96.36
2022-11-02T02:49:30.445Z,96.26
2022-11-02T02:50:42.567Z,96.34
2022-11-02T02:51:48.044Z,96.42
2022-11-02T02:52:54.211Z,96.25
2022-11-02T02:54:08.344Z,96.16
2022-11-02T02:55:28.216Z,96.08
2022-11-02T02:56:41.606Z,96.38
2022-11-02T02:57:48.716Z,96.09
2022-11-02T02:59:08.976Z,96.06
2022-11-02T03:00:17.728Z,96.18
2022-11-02T03:01:25.406Z,96.00
2022-11-02T03:02:40.442Z,95.83
2022-11-02T03:03:45.917Z,95.89
2022-11-02T03:04:50.481Z,96.02
2022-11-02T03:06:27.263Z,95.80
2022-11-02T03:07:34.744Z,96.04
2022-11-02T03:08:44.042Z,96.29
2022-11-02T03:09:59.042Z,96.26
2022-11-02T03:11:15.633Z,96.13
2022-11-02T03:13:14.706Z,95.82
2022-11-02T03:14:52.229Z,96.76
2022-11-02T03:16:12.081Z,96.32
2022-11-02T03:17:41.177Z,96.45
2022-11-02T03:19:13.231Z,96.21
2022-11-02T03:20:30.040Z,96.60
2022-11-02T03:21:45.399Z,96.55
2022-11-02T03:23:11.777Z,96.50
2022-11-02T03:25:05.488Z,96.74
2022-11-02T03:26:33.870Z,97.15
2022-11-02T03:28:16.888Z,97.02
2022-11-02T03:29:40.750Z,97.48
2022-11-02T03:31:00.434Z,97.43
2022-11-02T03:32:13.495Z,97.43
2022-11-02T03:33:31.231Z,97.55
2022-11-02T03:34:48.557Z,97.08
2022-11-02T03:36:09.110Z,97.70
2022-11-02T03:37:39.856Z,97.55
2022-11-02T03:39:07.423Z,97.79
2022-11-02T03:40:51.081Z,97.59
2022-11-02T03:41:59.985Z,97.70
2022-11-02T03:43:07.246Z,97.42
2022-11-02T03:44:25.305Z,97.73
2022-11-02T03:45:40.011Z,97.96
2022-11-02T03:46:47.662Z,97.63
2022-11-02T03:48:00.854Z,97.87
2022-11-02T03:49:11.407Z,97.74
2022-11-02T03:50:22.338Z,97.63
2022-11-02T03:51:31.756Z,97.62
2022-11-02T03:52:42.510Z,97.49
2022-11-02T03:53:59.066Z,97.35
2022-11-02T03:55:29.524Z,97.54
2022-11-02T03:56:41.683Z,97.42
2022-11-02T03:57:52.781Z,97.50
2022-11-02T03:58:59.132Z,97.60
2022-11-02T04:00:19.621Z,97.54
2022-11-02T04:01:25.307Z,97.51
2022-11-02T04:02:30.327Z,97.30
2022-11-02T04:03:40.772Z,97.59
2022-11-02T04:04:54.388Z,97.68
2022-11-02T04:05:59.232Z,97.48
2022-11-02T04:07:03.295Z,97.51
2022-11-02T04:08:24.628Z,97.58
2022-11-02T04:09:28.959Z,98.50
2022-11-02T04:10:33.266Z,98.38
2022-11-02T04:11:56.773Z,98.06
2022-11-02T04:13:20.216Z,98.11
2022-11-02T04:14:39.751Z,98.10
2022-11-02T04:15:44.226Z,98.20
2022-11-02T04:16:48.553Z,98.13
2022-11-02T04:18:11.513Z,98.36
2022-11-02T04:19:30.821Z,98.36
2022-11-02T04:20:35.148Z,98.26
2022-11-02T04:21:39.390Z,98.23
2022-11-02T04:23:02.027Z,98.51
2022-11-02T04:24:24.972Z,98.46
2022-11-02T04:25:29.645Z,98.20
2022-11-02T04:26:33.883Z,98.45
2022-11-02T04:27:38.166Z,98.05
2022-11-02T04:28:42.858Z,98.25
2022-11-02T04:29:48.144Z,98.25
2022-11-02T04:30:52.452Z,98.20
2022-11-02T04:31:56.666Z,98.33
2022-11-02T04:33:19.561Z,98.46
2022-11-02T04:34:23.760Z,98.59
2022-11-02T04:35:28.007Z,98.74
2022-11-02T04:36:36.260Z,98.89
2022-11-02T04:38:14.469Z,98.94
2022-11-02T04:39:18.822Z,99.00
2022-11-02T04:40:23.099Z,99.11
2022-11-02T04:41:42.117Z,99.04
2022-11-02T04:42:49.564Z,99.20
2022-11-02T04:43:54.284Z,99.08
2022-11-02T04:44:58.179Z,99.30
2022-11-02T04:46:02.363Z,99.27
2022-11-02T04:47:06.610Z,98.87
2022-11-02T04:48:10.964Z,99.07
2022-11-02T04:49:15.469Z,99.13
2022-11-02T04:50:20.486Z,98.97
2022-11-02T04:51:27.896Z,99.91
2022-11-02T04:52:32.538Z,99.93
2022-11-02T04:53:37.204Z,100.00
2022-11-02T04:54:42.154Z,99.96
2022-11-02T04:55:47.775Z,99.88
2022-11-02T04:56:51.998Z,100.00
2022-11-02T04:57:56.371Z,99.93
2022-11-02T04:59:02.519Z,100.00
2022-11-02T05:00:08.097Z,100.00
2022-11-02T05:01:16.955Z,100.00
2022-11-02T05:02:21.088Z,100.00
2022-11-02T05:03:25.909Z,100.00
2022-11-02T05:04:31.051Z,100.00
2022-11-02T05:05:36.089Z,100.00
2022-11-02T05:06:40.440Z,100.00
2022-11-02T05:07:45.610Z,100.00
2022-11-02T05:08:50.262Z,100.00
2022-11-02T05:09:54.819Z,100.00
2022-11-02T05:11:00.539Z,100.00
2022-11-02T05:12:05.622Z,100.00
2022-11-02T05:13:11.829Z,100.00
2022-11-02T05:14:16.360Z,100.00
2022-11-02T05:15:20.851Z,100.00
2022-11-02T05:16:25.235Z,100.00
2022-11-02T05:17:31.532Z,100.00
2022-11-02T05:18:36.636Z,100.00
2022-11-02T05:19:41.234Z,100.00
2022-11-02T05:20:55.400Z,100.00
2022-11-02T05:22:00.503Z,100.00
2022-11-02T05:23:07.502Z,100.00
2022-11-02T05:24:12.222Z,100.00
2022-11-02T05:25:16.870Z,100.00
2022-11-02T05:26:21.325Z,100.00
2022-11-02T05:27:26.627Z,100.00
2022-11-02T05:28:32.701Z,100.00
2022-11-02T05:29:37.426Z,100.00
2022-11-02T05:30:41.832Z,100.00
2022-11-02T05:31:46.627Z,100.00
2022-11-02T05:32:50.954Z,100.00
2022-11-02T05:33:59.007Z,100.00
2022-11-02T05:35:04.451Z,100.00
2022-11-02T05:36:09.763Z,100.00
2022-11-02T05:37:14.764Z,100.00
2022-11-02T05:38:19.662Z,100.00
2022-11-02T05:39:24.493Z,100.00
2022-11-02T05:40:28.483Z,100.00
2022-11-02T05:41:32.588Z,100.00
2022-11-02T05:42:37.821Z,100.00
2022-11-02T05:43:42.221Z,100.00
2022-11-02T05:44:46.619Z,100.00
2022-11-02T05:46:00.467Z,100.00
2022-11-02T05:47:05.558Z,100.00
2022-11-02T05:48:11.522Z,100.00
2022-11-02T05:49:15.955Z,100.00
2022-11-02T05:50:23.439Z,100.00
2022-11-02T05:51:27.824Z,99.93
2022-11-02T05:52:32.097Z,100.00
2022-11-02T05:53:38.616Z,100.00
2022-11-02T05:54:42.797Z,100.00
2022-11-02T05:55:47.719Z,100.00
2022-11-02T05:56:52.060Z,100.00
2022-11-02T05:57:57.220Z,100.00
2022-11-02T05:59:02.421Z,100.00
2022-11-02T06:00:09.077Z,100.00
2022-11-02T06:01:14.750Z,100.00
2022-11-02T06:02:23.249Z,100.00
2022-11-02T06:03:31.929Z,100.00
2022-11-02T06:04:36.594Z,99.93
2022-11-02T06:05:41.624Z,100.00
2022-11-02T06:06:46.128Z,100.00
2022-11-02T06:07:51.075Z,100.00
2022-11-02T06:08:56.204Z,100.00
2022-11-02T06:10:00.823Z,100.00
2022-11-02T06:11:14.906Z,100.00
2022-11-02T06:12:20.032Z,99.98
2022-11-02T06:13:24.433Z,100.00
2022-11-02T06:14:28.718Z,100.00
2022-11-02T06:15:33.998Z,99.88
2022-11-02T06:16:38.557Z,99.83
2022-11-02T06:17:43.112Z,99.72
2022-11-02T06:18:49.637Z,99.83
2022-11-02T06:19:54.763Z,100.00
2022-11-02T06:21:01.582Z,100.00
2022-11-02T06:22:26.178Z,99.95
2022-11-02T06:23:37.236Z,100.00
2022-11-02T06:24:41.766Z,100.00
2022-11-02T06:26:09.278Z,100.00
2022-11-02T06:27:16.789Z,100.00
2022-11-02T06:28:23.647Z,99.86
2022-11-02T06:29:28.469Z,100.00
2022-11-02T06:30:32.252Z,99.86
2022-11-02T06:31:37.214Z,100.00
2022-11-02T06:32:47.481Z,99.72
2022-11-02T06:33:52.535Z,100.00
2022-11-02T06:35:02.358Z,100.00
2022-11-02T06:36:08.901Z,100.00
2022-11-02T06:37:16.610Z,100.00
2022-11-02T06:38:32.210Z,100.00
2022-11-02T06:39:39.755Z,100.00
2022-11-02T06:40:57.767Z,100.00
2022-11-02T06:42:07.664Z,99.98
2022-11-02T06:43:20.723Z,100.00
2022-11-02T06:44:53.016Z,99.79
2022-11-02T06:46:03.169Z,99.73
2022-11-02T06:47:11.102Z,99.28
2022-11-02T06:48:18.899Z,99.60
2022-11-02T06:49:24.325Z,99.37
2022-11-02T06:50:30.381Z,99.26
2022-11-02T07:36:06.701Z,93.78
2022-11-02T07:37:11.151Z,94.11
2022-11-02T07:38:16.241Z,93.58
2022-11-02T07:39:21.247Z,93.08
2022-11-02T07:40:29.663Z,93.00
2022-11-02T07:41:35.868Z,92.68
2022-11-02T07:42:49.254Z,91.75
2022-11-02T07:43:56.426Z,91.41
2022-11-02T07:45:02.075Z,89.32
2022-11-02T07:46:07.167Z,88.19
2022-11-02T07:47:12.539Z,85.56
2022-11-02T07:48:18.626Z,83.66
2022-11-02T07:49:23.910Z,81.24
2022-11-02T07:50:29.833Z,76.87
2022-11-02T07:51:34.823Z,74.38
2022-11-02T07:52:48.108Z,72.03
2022-11-02T07:53:52.929Z,69.99
2022-11-02T07:54:57.664Z,67.43
2022-11-02T07:56:03.122Z,65.56
2022-11-02T07:57:07.891Z,63.60
2022-11-02T07:58:15.879Z,62.81
2022-11-02T07:59:22.019Z,59.17
2022-11-02T08:00:39.422Z,60.01
2022-11-02T08:01:45.909Z,57.73
2022-11-02T08:02:55.766Z,56.45
2022-11-02T08:04:00.417Z,54.79
2022-11-02T08:05:06.422Z,54.63
2022-11-02T08:06:11.927Z,52.30
2022-11-02T08:07:16.139Z,53.07
2022-11-02T08:08:23.724Z,51.92
2022-11-02T08:13:46.981Z,47.84
2022-11-02T08:14:52.031Z,48.54
2022-11-02T08:16:31.985Z,46.54
2022-11-02T08:17:43.861Z,47.44
2022-11-02T08:18:59.992Z,46.45
2022-11-02T08:20:08.930Z,47.14
2022-11-02T08:21:16.658Z,47.46
2022-11-02T08:22:22.774Z,47.89
2022-11-02T08:23:27.814Z,47.04
2022-11-02T08:24:32.613Z,47.41
2022-11-02T08:25:39.342Z,46.49
2022-11-02T08:26:45.375Z,47.21
2022-11-02T08:27:51.448Z,46.72
2022-11-02T09:17:42.764Z,48.00
2022-11-02T09:18:48.625Z,48.65
2022-11-02T09:19:53.036Z,49.24
2022-11-02T09:20:58.107Z,49.65
2022-11-02T09:22:05.647Z,50.23
2022-11-02T09:23:11.016Z,50.79
2022-11-02T09:24:17.509Z,51.81
2022-11-02T09:25:22.714Z,52.82
2022-11-02T09:26:27.122Z,53.14
2022-11-02T09:27:31.341Z,53.71
2022-11-02T09:28:36.649Z,53.63
2022-11-02T09:29:42.998Z,54.26
2022-11-02T09:30:49.699Z,54.71
2022-11-02T09:31:53.832Z,55.22
2022-11-02T09:33:03.844Z,55.74
2022-11-02T09:34:11.571Z,57.02
2022-11-02T09:35:21.598Z,58.51
2022-11-02T09:36:29.048Z,58.86
2022-11-02T09:37:38.889Z,59.87
2022-11-02T09:38:43.454Z,60.36
2022-11-02T09:39:48.332Z,61.60
2022-11-02T09:40:58.876Z,62.92
2022-11-02T09:42:22.077Z,62.55
2022-11-02T09:44:08.277Z,62.82
2022-11-02T09:45:18.772Z,62.40
2022-11-02T09:54:27.634Z,65.21
2022-11-02T09:55:40.985Z,65.94
2022-11-02T09:56:47.410Z,65.84
2022-11-02T09:58:04.773Z,65.40
2022-11-02T09:59:23.580Z,65.70
2022-11-02T10:00:37.624Z,66.48
2022-11-02T10:02:24.807Z,66.83
2022-11-02T10:04:20.847Z,66.70
2022-11-02T10:05:37.456Z,66.39
2022-11-02T10:06:54.647Z,66.96
2022-11-02T10:08:27.432Z,66.50
2022-11-02T10:10:07.379Z,66.84
2022-11-02T10:11:38.868Z,66.84
2022-11-02T10:12:58.099Z,66.55
2022-11-02T10:14:20.951Z,67.10
2022-11-02T10:15:35.545Z,67.06
2022-11-02T10:17:01.245Z,67.18
2022-11-02T10:18:14.643Z,66.64
2022-11-02T10:19:26.203Z,67.12
2022-11-02T10:20:47.739Z,67.45
2022-11-02T10:21:59.350Z,66.85
2022-11-02T10:23:13.113Z,66.87
2022-11-02T10:24:35.972Z,66.91
2022-11-02T10:25:50.117Z,66.46
2022-11-02T10:27:01.615Z,66.12
2022-11-02T10:28:20.919Z,66.23
2022-11-02T10:29:53.240Z,66.19
2022-11-02T10:30:58.645Z,66.00
2022-11-02T10:32:03.747Z,66.14
2022-11-02T10:33:20.907Z,65.48
2022-11-02T10:34:34.481Z,65.49
2022-11-02T10:37:40.082Z,65.32
2022-11-02T10:39:25.957Z,65.12
2022-11-02T10:40:45.033Z,65.21
2022-11-02T10:42:15.368Z,64.92
2022-11-02T10:43:59.891Z,64.90
2022-11-02T10:46:10.307Z,64.46
2022-11-02T10:47:30.878Z,64.76
2022-11-02T11:00:37.122Z,65.25
2022-11-02T11:02:15.711Z,65.31
2022-11-02T11:57:40.059Z,56.18
2022-11-02T11:58:52.367Z,56.45
2022-11-02T11:59:59.277Z,56.14
2022-11-02T12:01:21.257Z,56.39
2022-11-02T12:02:30.629Z,56.60
2022-11-02T12:03:55.810Z,56.79
2022-11-02T12:23:57.652Z,55.09
2022-11-02T12:25:31.647Z,54.92
2022-11-02T12:27:07.831Z,54.93
2022-11-02T12:28:58.460Z,54.99
2022-11-02T12:30:51.836Z,54.87
2022-11-02T12:32:20.517Z,55.01
2022-11-02T12:33:36.252Z,55.02
2022-11-02T12:35:28.278Z,54.82
2022-11-02T12:39:25.235Z,54.40
2022-11-02T12:40:58.464Z,54.29
2022-11-02T12:42:32.963Z,54.46
2022-11-02T12:43:49.634Z,54.35
2022-11-02T12:45:33.187Z,54.53
2022-11-02T12:47:27.338Z,54.44
2022-11-02T12:49:06.819Z,54.33
2022-11-02T12:50:56.206Z,54.77
2022-11-02T12:52:03.343Z,54.30
2022-11-02T12:53:42.865Z,54.61
2022-11-02T12:54:54.785Z,54.75
2022-11-02T12:56:05.602Z,54.29
2022-11-02T12:57:17.029Z,54.36
2022-11-02T12:58:35.822Z,54.09
2022-11-02T12:59:44.190Z,54.11
2022-11-02T13:00:56.738Z,54.15
2022-11-02T13:02:34.491Z,54.10
2022-11-02T13:04:24.513Z,54.17
2022-11-02T13:05:46.230Z,54.33
2022-11-02T13:07:16.631Z,54.10
2022-11-02T13:08:41.268Z,53.76
2022-11-02T13:10:01.207Z,53.78
2022-11-02T13:11:16.347Z,53.79
2022-11-02T13:12:25.501Z,53.90
2022-11-02T13:14:01.439Z,53.89
2022-11-02T13:15:13.026Z,54.10
2022-11-02T13:16:33.514Z,54.15
2022-11-02T13:18:02.964Z,54.40
2022-11-02T13:19:30.523Z,54.67
2022-11-02T13:21:03.205Z,54.96
2022-11-02T13:25:30.244Z,55.63
2022-11-02T13:26:42.532Z,55.86
2022-11-02T13:28:06.261Z,55.93
2022-11-02T13:29:32.819Z,56.28
2022-11-02T13:30:41.994Z,56.10
2022-11-02T13:31:57.041Z,56.31
2022-11-02T13:33:37.747Z,56.05
2022-11-02T13:34:47.889Z,56.07
2022-11-02T13:35:53.946Z,56.02
2022-11-02T13:36:59.025Z,55.83
2022-11-02T13:38:26.294Z,56.08
2022-11-02T13:39:42.254Z,55.95
2022-11-02T13:41:26.239Z,56.07
2022-11-02T13:42:56.560Z,56.10
2022-11-02T13:45:03.716Z,56.25
2022-11-02T13:47:04.057Z,56.02
2022-11-02T13:48:36.990Z,56.12
2022-11-02T13:49:52.442Z,56.24
2022-11-02T13:51:06.624Z,56.04
2022-11-02T13:53:05.384Z,55.99
2022-11-02T13:54:28.071Z,55.80
2022-11-02T13:56:21.075Z,55.73
2022-11-02T13:57:40.436Z,56.05
2022-11-02T13:59:10.531Z,55.94
2022-11-02T14:00:25.384Z,56.06
2022-11-02T14:01:36.991Z,56.25
2022-11-02T14:02:44.796Z,56.03
2022-11-02T14:04:02.986Z,56.19
2022-11-02T14:05:08.798Z,56.00
2022-11-02T14:06:17.279Z,55.93
2022-11-02T14:07:36.025Z,56.18
2022-11-02T14:08:54.663Z,56.53
2022-11-02T14:10:09.494Z,56.80
2022-11-02T14:11:18.841Z,56.88
2022-11-02T14:12:29.306Z,57.06
2022-11-02T14:14:09.044Z,57.24
2022-11-02T14:15:13.536Z,57.37
2022-11-02T14:16:44.771Z,57.82
2022-11-02T14:18:02.702Z,57.50
2022-11-02T14:19:32.942Z,58.07
2022-11-02T14:20:44.305Z,58.08
2022-11-02T14:21:52.619Z,58.31
2022-11-02T14:23:12.504Z,58.13
2022-11-02T14:24:37.287Z,58.86
2022-11-02T14:25:47.053Z,59.18
2022-11-02T14:26:57.904Z,59.66
2022-11-02T14:28:22.994Z,59.87
2022-11-02T14:29:53.548Z,60.48
2022-11-02T14:31:04.904Z,60.25
2022-11-02T14:32:21.827Z,61.19
2022-11-02T14:34:07.952Z,61.31
2022-11-02T14:35:51.518Z,62.37
2022-11-02T14:37:52.629Z,62.83
2022-11-02T14:39:40.255Z,62.84
2022-11-02T14:41:37.722Z,63.45
2022-11-02T14:43:19.682Z,63.86
2022-11-02T14:45:01.475Z,64.56
2022-11-02T14:46:53.927Z,64.11
2022-11-02T14:48:04.769Z,64.46
2022-11-02T14:49:30.791Z,64.84
2022-11-02T14:50:37.554Z,64.84
2022-11-02T14:51:43.483Z,65.00
2022-11-02T14:53:23.421Z,64.95
2022-11-02T14:54:32.820Z,65.44
2022-11-02T14:55:40.052Z,65.46
2022-11-02T14:57:26.634Z,65.36
2022-11-02T14:58:42.736Z,65.78
2022-11-02T14:59:54.948Z,65.61
2022-11-02T15:01:04.361Z,66.02
2022-11-02T15:02:37.218Z,66.08
2022-11-02T15:03:46.642Z,66.03
2022-11-02T15:04:58.232Z,66.52
2022-11-02T15:06:11.688Z,66.52
2022-11-02T15:07:45.494Z,66.30
2022-11-02T15:09:04.394Z,66.64
2022-11-02T15:10:31.557Z,66.66
2022-11-02T15:11:59.599Z,66.61
2022-11-02T15:13:25.104Z,67.13
2022-11-02T15:14:39.474Z,67.03
2022-11-02T15:15:44.822Z,66.92
2022-11-02T15:16:50.714Z,67.67
2022-11-02T15:17:59.983Z,67.32
2022-11-02T15:20:18.513Z,67.30
2022-11-02T15:21:27.341Z,67.47
2022-11-02T16:27:14.558Z,74.56
2022-11-02T16:28:34.280Z,75.03
2022-11-02T16:29:40.022Z,74.78
2022-11-02T16:35:36.753Z,75.45
2022-11-02T16:36:42.905Z,75.41
2022-11-02T16:37:50.432Z,75.33
2022-11-02T16:39:00.179Z,75.19
2022-11-02T16:55:04.156Z,76.71
2022-11-02T17:41:14.973Z,78.58
2022-11-02T17:42:39.357Z,78.07
2022-11-02T17:43:44.206Z,78.15
2022-11-02T17:44:50.331Z,78.15
2022-11-02T17:46:04.133Z,78.27
2022-11-02T17:47:16.517Z,78.15
2022-11-02T17:48:22.477Z,78.36
2022-11-02T17:49:27.354Z,78.88
2022-11-02T17:50:35.681Z,78.74
2022-11-02T18:05:58.770Z,79.87
2022-11-02T18:07:05.621Z,79.52
2022-11-02T18:08:10.728Z,79.41
2022-11-02T18:09:19.524Z,79.59
2022-11-02T18:56:40.163Z,81.91
2022-11-02T18:58:01.790Z,81.82
2022-11-02T19:04:53.681Z,81.99
2022-11-02T20:29:04.499Z,85.07
2022-11-02T20:30:12.786Z,85.01
2022-11-02T20:31:26.109Z,85.87
2022-11-02T20:32:30.808Z,85.25
2022-11-02T23:30:29.220Z,86.65
2022-11-02T23:31:55.800Z,86.47
2022-11-02T23:33:01.792Z,86.85
2022-11-02T23:34:06.320Z,86.76
2022-11-02T23:35:29.985Z,86.83
2022-11-02T23:38:08.430Z,86.68
2022-11-02T23:39:31.530Z,86.47
2022-11-02T23:40:35.908Z,86.36
2022-11-02T23:41:43.161Z,86.51
2022-11-02T23:42:47.818Z,86.87
2022-11-02T23:44:11.677Z,86.36
